createdAt,value
2023-03-17T00:00:21.627Z,100.00
2023-03-17T00:02:50.738Z,100.00
2023-03-17T00:05:22.567Z,100.00
2023-03-17T00:07:51.604Z,100.00
2023-03-17T00:10:21.199Z,100.00
2023-03-17T00:12:49.941Z,100.00
2023-03-17T00:15:18.033Z,100.00
2023-03-17T00:17:46.333Z,100.00
2023-03-17T00:20:17.692Z,100.00
2023-03-17T00:22:46.802Z,100.00
2023-03-17T00:25:19.180Z,100.00
2023-03-17T00:27:46.815Z,100.00
2023-03-17T00:30:14.897Z,100.00
2023-03-17T00:32:42.935Z,100.00
2023-03-17T00:35:17.944Z,100.00
2023-03-17T00:37:47.392Z,100.00
2023-03-17T00:40:19.182Z,100.00
2023-03-17T00:42:46.949Z,100.00
2023-03-17T00:45:15.796Z,100.00
2023-03-17T00:47:43.952Z,100.00
2023-03-17T00:50:18.769Z,100.00
2023-03-17T00:52:47.839Z,100.00
2023-03-17T00:55:15.567Z,100.00
2023-03-17T00:57:43.723Z,100.00
2023-03-17T01:00:22.992Z,100.00
2023-03-17T01:02:50.803Z,100.00
2023-03-17T01:05:18.600Z,100.00
2023-03-17T01:07:52.939Z,100.00
2023-03-17T01:10:22.557Z,100.00
2023-03-17T01:12:51.091Z,100.00
2023-03-17T01:15:19.736Z,100.00
2023-03-17T01:17:47.622Z,100.00
2023-03-17T01:20:17.848Z,100.00
2023-03-17T01:22:45.580Z,100.00
2023-03-17T01:25:15.130Z,100.00
2023-03-17T01:27:47.000Z,100.00
2023-03-17T01:30:22.560Z,100.00
2023-03-17T01:32:51.070Z,100.00
2023-03-17T01:35:19.924Z,100.00
2023-03-17T01:37:47.605Z,100.00
2023-03-17T01:40:18.395Z,100.00
2023-03-17T01:42:49.208Z,100.00
2023-03-17T01:45:35.245Z,100.00
2023-03-17T01:48:03.233Z,100.00
2023-03-17T01:50:31.875Z,100.00
2023-03-17T01:52:59.709Z,100.00
2023-03-17T01:55:30.357Z,100.00
2023-03-17T01:57:58.606Z,100.00
2023-03-17T02:00:26.665Z,100.00
2023-03-17T02:02:55.774Z,100.00
2023-03-17T02:05:25.992Z,100.00
2023-03-17T02:07:53.866Z,100.00
2023-03-17T02:10:23.040Z,100.00
2023-03-17T02:12:54.249Z,100.00
2023-03-17T02:15:21.962Z,100.00
2023-03-17T02:17:49.739Z,100.00
2023-03-17T02:20:36.065Z,100.00
2023-03-17T02:23:06.471Z,100.00
2023-03-17T02:25:35.517Z,100.00
2023-03-17T02:28:08.352Z,100.00
2023-03-17T02:30:36.541Z,100.00
2023-03-17T02:33:04.324Z,100.00
2023-03-17T02:35:32.064Z,100.00
2023-03-17T02:37:59.865Z,100.00
2023-03-17T02:40:29.192Z,100.00
2023-03-17T02:42:57.500Z,100.00
2023-03-17T02:45:25.319Z,100.00
2023-03-17T02:47:55.258Z,100.00
2023-03-17T02:50:24.283Z,100.00
2023-03-17T02:52:52.243Z,100.00
2023-03-17T02:55:20.382Z,100.00
2023-03-17T02:57:49.479Z,100.00
2023-03-17T03:00:17.494Z,100.00
2023-03-17T03:02:45.419Z,100.00
2023-03-17T03:05:13.082Z,100.00
2023-03-17T03:07:40.765Z,100.00
2023-03-17T03:10:09.353Z,100.00
2023-03-17T03:12:37.809Z,100.00
2023-03-17T03:15:07.441Z,100.00
2023-03-17T03:17:35.312Z,100.00
2023-03-17T03:20:03.072Z,100.00
2023-03-17T03:22:30.742Z,100.00
2023-03-17T03:24:58.530Z,100.00
2023-03-17T03:27:26.657Z,100.00
2023-03-17T03:29:54.287Z,100.00
2023-03-17T03:32:23.387Z,100.00
2023-03-17T03:34:51.226Z,100.00
2023-03-17T03:37:19.014Z,100.00
2023-03-17T03:39:47.740Z,100.00
2023-03-17T03:42:16.400Z,100.00
2023-03-17T03:44:44.112Z,100.00
2023-03-17T03:47:11.920Z,100.00
2023-03-17T03:49:41.097Z,100.00
2023-03-17T03:52:08.933Z,100.00
2023-03-17T03:54:36.673Z,100.00
2023-03-17T03:57:04.742Z,100.00
2023-03-17T03:59:32.580Z,100.00
2023-03-17T04:02:00.309Z,100.00
2023-03-17T04:04:28.048Z,100.00
2023-03-17T04:06:57.104Z,100.00
2023-03-17T04:09:24.823Z,100.00
2023-03-17T04:11:52.476Z,100.00
2023-03-17T04:14:20.133Z,100.00
2023-03-17T04:16:47.837Z,100.00
2023-03-17T04:19:15.798Z,100.00
2023-03-17T04:21:43.508Z,100.00
2023-03-17T04:24:12.563Z,100.00
2023-03-17T04:26:42.625Z,100.00
2023-03-17T04:29:15.521Z,100.00
2023-03-17T04:31:43.259Z,100.00
2023-03-17T04:34:14.418Z,100.00
2023-03-17T04:36:42.520Z,100.00
2023-03-17T04:39:10.400Z,100.00
2023-03-17T04:41:39.678Z,100.00
2023-03-17T04:44:07.600Z,100.00
2023-03-17T04:46:35.624Z,100.00
2023-03-17T04:49:03.368Z,100.00
2023-03-17T04:51:31.252Z,100.00
2023-03-17T04:53:58.921Z,100.00
2023-03-17T04:56:26.667Z,100.00
2023-03-17T04:58:55.740Z,100.00
2023-03-17T05:01:23.512Z,100.00
2023-03-17T05:03:51.630Z,100.00
2023-03-17T05:06:19.244Z,100.00
2023-03-17T05:08:49.377Z,100.00
2023-03-17T05:11:17.302Z,100.00
2023-03-17T05:13:44.981Z,100.00
2023-03-17T05:16:14.078Z,100.00
2023-03-17T05:18:41.980Z,100.00
2023-03-17T05:21:09.651Z,100.00
2023-03-17T05:23:37.315Z,100.00
2023-03-17T05:26:05.311Z,100.00
2023-03-17T05:28:33.026Z,100.00
2023-03-17T05:31:00.752Z,100.00
2023-03-17T05:33:29.931Z,100.00
2023-03-17T05:35:57.823Z,100.00
2023-03-17T05:38:25.832Z,100.00
2023-03-17T05:40:53.786Z,100.00
2023-03-17T05:43:21.529Z,100.00
2023-03-17T05:45:50.610Z,100.00
2023-03-17T05:48:18.386Z,100.00
2023-03-17T05:50:47.451Z,100.00
2023-03-17T05:53:15.681Z,100.00
2023-03-17T05:55:43.369Z,100.00
2023-03-17T05:58:11.163Z,100.00
2023-03-17T06:00:38.931Z,100.00
2023-03-17T06:03:07.837Z,100.00
2023-03-17T06:05:35.798Z,100.00
2023-03-17T06:08:05.742Z,100.00
2023-03-17T06:10:33.874Z,100.00
2023-03-17T06:13:03.780Z,100.00
2023-03-17T06:15:32.895Z,100.00
2023-03-17T06:18:00.791Z,100.00
2023-03-17T06:20:28.445Z,100.00
2023-03-17T06:23:04.338Z,100.00
2023-03-17T06:25:34.585Z,100.00
2023-03-17T06:28:04.024Z,100.00
2023-03-17T06:30:32.866Z,100.00
2023-03-17T06:33:01.236Z,100.00
2023-03-17T06:35:29.448Z,100.00
2023-03-17T06:37:58.013Z,100.00
2023-03-17T06:40:25.940Z,100.00
2023-03-17T06:42:54.969Z,100.00
2023-03-17T06:45:22.590Z,100.00
2023-03-17T06:47:50.217Z,100.00
2023-03-17T06:50:17.972Z,100.00
2023-03-17T06:52:46.890Z,100.00
2023-03-17T06:55:15.216Z,100.00
2023-03-17T06:57:43.363Z,100.00
2023-03-17T07:00:14.193Z,100.00
2023-03-17T07:02:42.336Z,100.00
2023-03-17T07:05:10.258Z,100.00
2023-03-17T07:07:38.797Z,100.00
2023-03-17T07:10:07.161Z,100.00
2023-03-17T07:12:34.825Z,100.00
2023-03-17T07:15:02.563Z,100.00
2023-03-17T07:17:31.624Z,100.00
2023-03-17T07:19:59.642Z,100.00
2023-03-17T07:22:27.382Z,100.00
2023-03-17T07:24:55.263Z,100.00
2023-03-17T07:27:25.306Z,100.00
2023-03-17T07:29:53.130Z,100.00
2023-03-17T07:32:20.894Z,100.00
2023-03-17T07:34:50.254Z,100.00
2023-03-17T07:37:18.011Z,100.00
2023-03-17T07:39:47.299Z,100.00
2023-03-17T07:42:15.880Z,100.00
2023-03-17T07:44:43.622Z,100.00
2023-03-17T07:47:11.923Z,100.00
2023-03-17T07:49:41.996Z,100.00
2023-03-17T07:52:12.719Z,100.00
2023-03-17T07:54:42.997Z,100.00
2023-03-17T07:57:11.034Z,100.00
2023-03-17T07:59:40.004Z,100.00
2023-03-17T08:02:07.841Z,100.00
2023-03-17T08:04:35.645Z,100.00
2023-03-17T08:07:03.439Z,100.00
2023-03-17T08:09:32.689Z,100.00
2023-03-17T08:12:00.402Z,100.00
2023-03-17T08:14:28.074Z,100.00
2023-03-17T08:16:55.893Z,100.00
2023-03-17T08:19:24.344Z,100.00
2023-03-17T08:21:52.084Z,100.00
2023-03-17T08:24:19.832Z,100.00
2023-03-17T08:26:50.257Z,100.00
2023-03-17T08:29:18.579Z,100.00
2023-03-17T08:31:46.849Z,100.00
2023-03-17T08:34:16.240Z,100.00
2023-03-17T08:36:44.044Z,100.00
2023-03-17T08:39:11.763Z,100.00
2023-03-17T08:41:39.786Z,100.00
2023-03-17T08:44:09.818Z,100.00
2023-03-17T08:46:37.838Z,100.00
2023-03-17T08:49:05.649Z,100.00
2023-03-17T08:51:34.377Z,100.00
2023-03-17T08:54:02.116Z,100.00
2023-03-17T08:56:29.878Z,100.00
2023-03-17T08:58:57.819Z,100.00
2023-03-17T09:01:27.778Z,100.00
2023-03-17T09:03:58.352Z,100.00
2023-03-17T09:06:26.465Z,100.00
2023-03-17T09:08:55.860Z,100.00
2023-03-17T09:11:26.829Z,100.00
2023-03-17T09:13:55.496Z,100.00
2023-03-17T09:16:24.402Z,99.48
2023-03-17T09:18:53.887Z,99.29
2023-03-17T09:21:22.253Z,98.25
2023-03-17T09:23:49.857Z,97.67
2023-03-17T09:26:17.581Z,96.28
2023-03-17T09:28:45.282Z,97.32
2023-03-17T09:31:13.459Z,97.88
2023-03-17T09:33:41.807Z,96.64
2023-03-17T09:36:11.365Z,96.68
2023-03-17T09:38:39.292Z,96.07
2023-03-17T09:41:19.774Z,95.13
2023-03-17T09:43:54.564Z,94.62
2023-03-17T09:46:30.827Z,94.79
2023-03-17T09:49:01.114Z,95.90
2023-03-17T09:51:31.210Z,94.99
2023-03-17T09:54:00.631Z,94.53
2023-03-17T09:56:28.787Z,93.64
2023-03-17T09:58:58.659Z,93.69
2023-03-17T10:01:26.785Z,92.92
2023-03-17T10:03:54.501Z,92.20
2023-03-17T10:06:33.633Z,91.79
2023-03-17T10:09:06.503Z,91.59
2023-03-17T10:11:38.844Z,91.36
2023-03-17T10:14:12.996Z,90.64
2023-03-17T10:16:43.738Z,92.38
2023-03-17T10:19:15.313Z,91.40
2023-03-17T10:21:45.988Z,92.47
2023-03-17T10:24:15.420Z,91.59
2023-03-17T10:26:45.508Z,92.02
2023-03-17T10:29:15.043Z,91.18
2023-03-17T10:31:42.798Z,91.97
2023-03-17T10:34:14.336Z,92.63
2023-03-17T10:36:44.477Z,92.65
2023-03-17T10:39:14.276Z,92.03
2023-03-17T10:41:54.542Z,92.71
2023-03-17T10:44:31.237Z,91.41
2023-03-17T10:46:58.868Z,92.59
2023-03-17T10:49:27.684Z,92.85
2023-03-17T10:51:55.957Z,91.07
2023-03-17T10:54:25.284Z,89.60
2023-03-17T10:57:01.289Z,88.90
2023-03-17T11:02:00.198Z,89.25
2023-03-17T11:04:29.704Z,88.79
2023-03-17T11:06:58.424Z,86.53
2023-03-17T11:09:26.378Z,85.44
2023-03-17T11:12:02.780Z,87.01
2023-03-17T11:14:30.450Z,85.87
2023-03-17T11:16:59.281Z,85.61
2023-03-17T11:19:31.858Z,85.40
2023-03-17T11:22:04.985Z,85.10
2023-03-17T11:24:34.084Z,84.91
2023-03-17T11:27:08.658Z,84.49
2023-03-17T11:29:43.323Z,84.21
2023-03-17T11:32:20.919Z,85.86
2023-03-17T11:34:59.136Z,85.52
2023-03-17T11:37:34.651Z,85.36
2023-03-17T11:40:07.752Z,86.88
2023-03-17T11:42:41.429Z,85.70
2023-03-17T11:45:22.463Z,87.23
2023-03-17T11:47:57.334Z,88.22
2023-03-17T11:50:30.600Z,86.13
2023-03-17T11:53:12.127Z,87.67
2023-03-17T11:55:44.640Z,87.36
2023-03-17T11:58:15.427Z,88.85
2023-03-17T12:00:46.756Z,88.10
2023-03-17T12:03:18.646Z,87.96
2023-03-17T12:05:47.288Z,88.71
2023-03-17T12:08:20.645Z,88.96
2023-03-17T12:10:51.779Z,88.71
2023-03-17T12:13:24.009Z,87.48
2023-03-17T12:15:54.072Z,87.84
2023-03-17T12:18:25.269Z,87.93
2023-03-17T12:20:56.746Z,90.15
2023-03-17T12:23:30.175Z,89.44
2023-03-17T12:26:03.844Z,89.21
2023-03-17T12:28:35.905Z,88.25
2023-03-17T12:31:06.866Z,88.92
2023-03-17T12:33:37.971Z,87.81
2023-03-17T12:36:06.882Z,89.48
2023-03-17T12:38:37.191Z,89.42
2023-03-17T12:41:37.857Z,88.68
2023-03-17T12:44:16.949Z,88.88
2023-03-17T12:46:50.703Z,89.84
2023-03-17T12:49:32.996Z,89.93
2023-03-17T12:52:10.249Z,90.43
2023-03-17T12:54:39.495Z,90.25
2023-03-17T12:57:11.725Z,91.11
2023-03-17T12:59:42.793Z,90.18
2023-03-17T13:02:16.301Z,89.12
2023-03-17T13:04:50.432Z,89.14
2023-03-17T13:07:20.532Z,88.96
2023-03-17T13:09:49.845Z,88.62
2023-03-17T13:12:37.188Z,87.87
2023-03-17T13:15:22.679Z,88.17
2023-03-17T13:17:50.762Z,89.28
2023-03-17T13:20:19.352Z,88.74
2023-03-17T13:23:02.364Z,88.85
2023-03-17T13:25:34.485Z,88.25
2023-03-17T13:28:17.621Z,87.13
2023-03-17T13:30:55.526Z,87.68
2023-03-17T13:33:27.209Z,87.99
2023-03-17T13:36:10.186Z,88.67
2023-03-17T13:39:17.791Z,88.86
2023-03-17T13:41:52.788Z,88.60
2023-03-17T13:44:38.527Z,87.26
2023-03-17T13:47:28.390Z,88.15
2023-03-17T13:49:58.919Z,85.84
2023-03-17T13:52:29.074Z,86.15
2023-03-17T13:55:02.215Z,85.65
2023-03-17T13:57:30.732Z,86.67
2023-03-17T14:00:02.920Z,87.68
2023-03-17T14:02:35.117Z,88.72
2023-03-17T14:05:04.669Z,89.70
2023-03-17T14:07:38.147Z,88.27
2023-03-17T14:10:08.081Z,90.35
2023-03-17T14:12:41.260Z,90.40
2023-03-17T14:15:13.327Z,90.14
2023-03-17T14:17:45.667Z,90.21
2023-03-17T14:20:21.686Z,89.97
2023-03-17T14:22:50.213Z,91.15
2023-03-17T14:25:18.635Z,92.04
2023-03-17T14:27:48.702Z,92.56
2023-03-17T14:30:20.784Z,91.64
2023-03-17T14:32:51.845Z,92.47
2023-03-17T14:35:19.593Z,92.86
2023-03-17T14:37:47.306Z,93.42
2023-03-17T14:40:20.726Z,93.89
2023-03-17T14:42:48.488Z,94.59
2023-03-17T14:45:21.282Z,93.28
2023-03-17T14:47:51.011Z,93.77
2023-03-17T14:50:20.652Z,93.95
2023-03-17T14:52:50.474Z,93.98
2023-03-17T14:55:19.801Z,94.59
2023-03-17T14:57:50.040Z,93.04
2023-03-17T15:00:28.803Z,93.56
2023-03-17T15:02:58.298Z,93.10
2023-03-17T15:05:27.654Z,94.03
2023-03-17T15:07:55.414Z,93.08
2023-03-17T15:10:24.490Z,91.92
2023-03-17T15:13:01.289Z,92.59
2023-03-17T15:15:32.448Z,93.25
2023-03-17T15:18:04.136Z,93.18
2023-03-17T15:20:35.291Z,92.54
2023-03-17T15:23:04.790Z,92.18
2023-03-17T15:25:35.295Z,92.30
2023-03-17T15:28:03.492Z,93.58
2023-03-17T15:30:44.286Z,92.92
2023-03-17T15:33:18.745Z,92.46
2023-03-17T15:35:46.597Z,93.23
2023-03-17T15:38:14.323Z,93.08
2023-03-17T15:40:42.204Z,93.30
2023-03-17T15:43:10.493Z,93.68
2023-03-17T15:45:38.274Z,93.91
2023-03-17T15:48:07.184Z,93.63
2023-03-17T15:50:36.617Z,95.13
2023-03-17T15:53:04.233Z,95.76
2023-03-17T15:55:32.998Z,94.83
2023-03-17T15:58:01.047Z,95.42
2023-03-17T16:00:30.318Z,95.20
2023-03-17T16:03:00.167Z,95.23
2023-03-17T16:05:29.472Z,95.13
2023-03-17T16:07:58.498Z,95.00
2023-03-17T16:10:27.216Z,95.73
2023-03-17T16:12:55.565Z,96.16
2023-03-17T16:15:24.036Z,96.38
2023-03-17T16:17:53.552Z,97.17
2023-03-17T16:20:26.084Z,98.21
2023-03-17T16:22:54.162Z,100.00
2023-03-17T16:25:26.014Z,100.00
2023-03-17T16:27:54.735Z,100.00
2023-03-17T16:30:23.335Z,100.00
2023-03-17T16:32:51.415Z,100.00
2023-03-17T16:35:20.305Z,100.00
2023-03-17T16:37:48.103Z,100.00
2023-03-17T16:40:20.070Z,100.00
2023-03-17T16:42:49.502Z,100.00
2023-03-17T16:45:21.596Z,100.00
2023-03-17T16:47:49.337Z,100.00
2023-03-17T16:50:18.395Z,100.00
2023-03-17T16:52:46.066Z,100.00
2023-03-17T16:55:16.819Z,100.00
2023-03-17T16:57:46.259Z,100.00
2023-03-17T17:00:18.539Z,100.00
2023-03-17T17:02:47.957Z,100.00
2023-03-17T17:05:17.977Z,100.00
2023-03-17T17:07:45.773Z,100.00
2023-03-17T17:10:17.334Z,100.00
2023-03-17T17:12:45.394Z,100.00
2023-03-17T17:15:13.885Z,100.00
2023-03-17T17:17:44.455Z,100.00
2023-03-17T17:20:15.215Z,100.00
2023-03-17T17:22:43.140Z,100.00
2023-03-17T17:25:11.036Z,100.00
2023-03-17T17:27:39.229Z,100.00
2023-03-17T17:30:08.251Z,100.00
2023-03-17T17:32:36.471Z,100.00
2023-03-17T17:35:05.688Z,100.00
2023-03-17T17:37:33.408Z,100.00
2023-03-17T17:40:01.142Z,100.00
2023-03-17T17:42:28.848Z,100.00
2023-03-17T17:44:56.539Z,100.00
2023-03-17T17:47:24.202Z,100.00
2023-03-17T17:49:51.892Z,100.00
2023-03-17T17:52:20.959Z,100.00
2023-03-17T17:54:48.933Z,100.00
2023-03-17T17:57:16.968Z,100.00
2023-03-17T17:59:44.707Z,100.00
2023-03-17T18:02:13.250Z,100.00
2023-03-17T18:04:41.622Z,100.00
2023-03-17T18:07:09.754Z,100.00
2023-03-17T18:09:38.818Z,100.00
2023-03-17T18:12:06.732Z,100.00
2023-03-17T18:14:34.464Z,100.00
2023-03-17T18:17:02.139Z,100.00
2023-03-17T18:19:30.067Z,100.00
2023-03-17T18:21:57.715Z,100.00
2023-03-17T18:24:25.394Z,100.00
2023-03-17T18:26:54.431Z,100.00
2023-03-17T18:29:22.173Z,100.00
2023-03-17T18:31:51.156Z,100.00
2023-03-17T18:34:20.861Z,100.00
2023-03-17T18:36:48.989Z,100.00
2023-03-17T18:39:17.215Z,100.00
2023-03-17T18:41:45.800Z,100.00
2023-03-17T18:44:14.872Z,100.00
2023-03-17T18:46:42.746Z,100.00
2023-03-17T18:49:10.392Z,100.00
2023-03-17T18:51:38.040Z,100.00
2023-03-17T18:54:06.080Z,100.00
2023-03-17T18:56:33.890Z,100.00
2023-03-17T18:59:01.739Z,100.00
2023-03-17T19:01:33.397Z,100.00
2023-03-17T19:04:01.509Z,100.00
2023-03-17T19:06:29.184Z,100.00
2023-03-17T19:08:57.358Z,100.00
2023-03-17T19:11:26.086Z,100.00
2023-03-17T19:13:53.773Z,100.00
2023-03-17T19:16:21.715Z,100.00
2023-03-17T19:18:51.529Z,100.00
2023-03-17T19:21:19.859Z,100.00
2023-03-17T19:23:47.581Z,100.00
2023-03-17T19:26:15.262Z,100.00
2023-03-17T19:28:42.958Z,100.00
2023-03-17T19:31:10.905Z,100.00
2023-03-17T19:33:38.691Z,100.00
2023-03-17T19:36:09.412Z,100.00
2023-03-17T19:38:37.212Z,100.00
2023-03-17T19:41:05.259Z,100.00
2023-03-17T19:43:40.741Z,100.00
2023-03-17T19:46:09.638Z,100.00
2023-03-17T19:48:37.591Z,100.00
2023-03-17T19:51:05.589Z,100.00
2023-03-17T19:53:34.687Z,100.00
2023-03-17T19:56:02.287Z,100.00
2023-03-17T19:58:29.972Z,100.00
2023-03-17T20:00:57.691Z,100.00
2023-03-17T20:03:26.434Z,100.00
2023-03-17T20:05:54.373Z,100.00
2023-03-17T20:08:22.583Z,100.00
2023-03-17T20:10:55.263Z,100.00
2023-03-17T20:13:23.293Z,100.00
2023-03-17T20:15:51.564Z,100.00
2023-03-17T20:18:19.932Z,100.00
2023-03-17T20:20:50.017Z,100.00
2023-03-17T20:23:18.106Z,100.00
2023-03-17T20:25:45.877Z,100.00
2023-03-17T20:28:17.944Z,100.00
2023-03-17T20:30:46.322Z,100.00
2023-03-17T20:33:14.195Z,100.00
2023-03-17T20:35:43.103Z,100.00
2023-03-17T20:38:11.424Z,100.00
2023-03-17T20:40:39.288Z,100.00
2023-03-17T20:43:06.907Z,100.00
2023-03-17T20:45:36.993Z,100.00
2023-03-17T20:48:06.150Z,100.00
2023-03-17T20:50:34.444Z,100.00
2023-03-17T20:53:02.627Z,100.00
2023-03-17T20:55:30.822Z,100.00
2023-03-17T20:57:59.849Z,100.00
2023-03-17T21:00:27.848Z,100.00
2023-03-17T21:02:57.207Z,100.00
2023-03-17T21:05:27.004Z,100.00
2023-03-17T21:07:56.604Z,100.00
2023-03-17T21:10:24.440Z,100.00
2023-03-17T21:12:52.136Z,100.00
2023-03-17T21:15:19.862Z,100.00
2023-03-17T21:17:47.573Z,100.00
2023-03-17T21:20:16.985Z,100.00
2023-03-17T21:22:46.088Z,100.00
2023-03-17T21:25:13.841Z,100.00
2023-03-17T21:27:42.704Z,100.00
2023-03-17T21:30:12.401Z,100.00
2023-03-17T21:32:40.415Z,100.00
2023-03-17T21:35:08.912Z,100.00
2023-03-17T21:37:38.004Z,100.00
2023-03-17T21:40:07.254Z,100.00
2023-03-17T21:42:34.979Z,100.00
2023-03-17T21:45:02.658Z,100.00
2023-03-17T21:47:31.057Z,100.00
2023-03-17T21:49:59.013Z,100.00
2023-03-17T21:52:27.076Z,100.00
2023-03-17T21:54:56.119Z,100.00
2023-03-17T21:57:24.140Z,100.00
2023-03-17T21:59:51.915Z,100.00
2023-03-17T22:02:19.643Z,100.00
2023-03-17T22:04:48.705Z,100.00
2023-03-17T22:07:16.686Z,100.00
2023-03-17T22:09:44.949Z,100.00
2023-03-17T22:12:14.076Z,100.00
2023-03-17T22:14:41.795Z,100.00
2023-03-17T22:17:10.094Z,100.00
2023-03-17T22:19:37.835Z,100.00
2023-03-17T22:22:05.850Z,100.00
2023-03-17T22:24:36.388Z,100.00
2023-03-17T22:27:07.032Z,100.00
2023-03-17T22:29:36.785Z,100.00
2023-03-17T22:32:04.674Z,100.00
2023-03-17T22:34:32.424Z,100.00
2023-03-17T22:37:00.107Z,100.00
2023-03-17T22:39:28.934Z,100.00
2023-03-17T22:41:56.704Z,100.00
2023-03-17T22:44:24.378Z,100.00
2023-03-17T22:46:53.578Z,100.00
2023-03-17T22:49:21.932Z,100.00
2023-03-17T22:51:50.098Z,100.00
2023-03-17T22:54:18.739Z,100.00
2023-03-17T22:56:46.417Z,100.00
2023-03-17T22:59:14.142Z,100.00
2023-03-17T23:01:41.822Z,100.00
2023-03-17T23:04:10.921Z,100.00
2023-03-17T23:06:38.905Z,100.00
2023-03-17T23:09:06.566Z,100.00
2023-03-17T23:11:34.203Z,100.00
2023-03-17T23:14:01.924Z,100.00
2023-03-17T23:16:30.163Z,100.00
2023-03-17T23:18:57.925Z,100.00
2023-03-17T23:21:28.871Z,100.00
2023-03-17T23:23:56.561Z,100.00
2023-03-17T23:26:24.368Z,100.00
2023-03-17T23:28:52.673Z,100.00
2023-03-17T23:31:22.324Z,100.00
2023-03-17T23:33:50.501Z,100.00
2023-03-17T23:36:18.631Z,100.00
2023-03-17T23:38:48.646Z,100.00
2023-03-17T23:41:16.924Z,100.00
2023-03-17T23:43:44.947Z,100.00
2023-03-17T23:46:13.068Z,100.00
2023-03-17T23:48:42.652Z,100.00
2023-03-17T23:51:12.106Z,100.00
2023-03-17T23:53:40.655Z,100.00
2023-03-17T23:56:11.247Z,100.00
2023-03-17T23:58:38.919Z,100.00
